sensor_id;sensor_type;location;lat;lon;timestamp;P1;durP1;ratioP1;P2;durP2;ratioP2
16832;SDS011;8533;48.426;10.868;2022-09-09T00:00:21;2.90;;;1.80;;
16832;SDS011;8533;48.426;10.868;2022-09-09T00:03:02;2.80;;;2.00;;
16832;SDS011;8533;48.426;10.868;2022-09-09T00:05:42;2.40;;;1.87;;
16832;SDS011;8533;48.426;10.868;2022-09-09T00:08:20;2.23;;;1.77;;
16832;SDS011;8533;48.426;10.868;2022-09-09T00:16:24;1.40;;;1.30;;
16832;SDS011;8533;48.426;10.868;2022-09-09T00:24:26;3.93;;;3.43;;
16832;SDS011;8533;48.426;10.868;2022-09-09T00:29:25;3.63;;;1.60;;
16832;SDS011;8533;48.426;10.868;2022-09-09T00:32:11;1.73;;;1.50;;
16832;SDS011;8533;48.426;10.868;2022-09-09T00:34:35;4.70;;;1.70;;
16832;SDS011;8533;48.426;10.868;2022-09-09T00:37:05;2.00;;;1.57;;
16832;SDS011;8533;48.426;10.868;2022-09-09T00:39:36;3.77;;;1.63;;
16832;SDS011;8533;48.426;10.868;2022-09-09T00:42:14;1.70;;;1.60;;
16832;SDS011;8533;48.426;10.868;2022-09-09T00:56:04;2.00;;;1.80;;
16832;SDS011;8533;48.426;10.868;2022-09-09T00:58:42;2.33;;;2.13;;
16832;SDS011;8533;48.426;10.868;2022-09-09T01:01:13;1.67;;;1.57;;
16832;SDS011;8533;48.426;10.868;2022-09-09T01:03:47;4.20;;;1.80;;
16832;SDS011;8533;48.426;10.868;2022-09-09T01:06:32;1.80;;;1.65;;
16832;SDS011;8533;48.426;10.868;2022-09-09T01:14:24;2.07;;;1.87;;
16832;SDS011;8533;48.426;10.868;2022-09-09T01:19:33;2.17;;;1.90;;
16832;SDS011;8533;48.426;10.868;2022-09-09T01:24:40;1.67;;;1.57;;
16832;SDS011;8533;48.426;10.868;2022-09-09T01:29:37;2.37;;;1.77;;
16832;SDS011;8533;48.426;10.868;2022-09-09T01:35:15;1.90;;;1.80;;
16832;SDS011;8533;48.426;10.868;2022-09-09T01:37:56;3.40;;;1.93;;
16832;SDS011;8533;48.426;10.868;2022-09-09T01:40:24;2.20;;;1.70;;
16832;SDS011;8533;48.426;10.868;2022-09-09T01:42:52;2.10;;;1.83;;
16832;SDS011;8533;48.426;10.868;2022-09-09T01:45:22;2.20;;;1.83;;
16832;SDS011;8533;48.426;10.868;2022-09-09T01:47:52;3.67;;;1.70;;
16832;SDS011;8533;48.426;10.868;2022-09-09T01:50:20;3.47;;;2.10;;
16832;SDS011;8533;48.426;10.868;2022-09-09T01:52:49;2.33;;;1.90;;
16832;SDS011;8533;48.426;10.868;2022-09-09T01:55:19;2.93;;;1.90;;
16832;SDS011;8533;48.426;10.868;2022-09-09T01:57:52;2.30;;;2.10;;
16832;SDS011;8533;48.426;10.868;2022-09-09T02:00:34;2.05;;;1.85;;
16832;SDS011;8533;48.426;10.868;2022-09-09T02:03:18;2.80;;;2.10;;
16832;SDS011;8533;48.426;10.868;2022-09-09T02:08:18;3.83;;;2.20;;
16832;SDS011;8533;48.426;10.868;2022-09-09T02:13:27;2.65;;;2.05;;
16832;SDS011;8533;48.426;10.868;2022-09-09T02:16:15;3.23;;;2.10;;
16832;SDS011;8533;48.426;10.868;2022-09-09T02:18:48;2.65;;;1.90;;
16832;SDS011;8533;48.426;10.868;2022-09-09T02:21:16;2.97;;;2.50;;
16832;SDS011;8533;48.426;10.868;2022-09-09T02:23:44;4.77;;;2.20;;
16832;SDS011;8533;48.426;10.868;2022-09-09T02:26:16;3.80;;;2.23;;
16832;SDS011;8533;48.426;10.868;2022-09-09T02:28:48;3.93;;;2.17;;
16832;SDS011;8533;48.426;10.868;2022-09-09T02:31:17;2.17;;;1.97;;
16832;SDS011;8533;48.426;10.868;2022-09-09T02:33:55;3.17;;;2.33;;
16832;SDS011;8533;48.426;10.868;2022-09-09T02:38:52;3.97;;;2.27;;
16832;SDS011;8533;48.426;10.868;2022-09-09T02:41:28;3.43;;;2.40;;
16832;SDS011;8533;48.426;10.868;2022-09-09T02:43:52;2.97;;;2.10;;
16832;SDS011;8533;48.426;10.868;2022-09-09T02:46:36;4.50;;;2.33;;
16832;SDS011;8533;48.426;10.868;2022-09-09T02:49:19;3.27;;;2.53;;
16832;SDS011;8533;48.426;10.868;2022-09-09T02:54:29;4.37;;;2.30;;
16832;SDS011;8533;48.426;10.868;2022-09-09T02:57:04;3.80;;;2.70;;
16832;SDS011;8533;48.426;10.868;2022-09-09T02:59:30;4.13;;;2.97;;
16832;SDS011;8533;48.426;10.868;2022-09-09T03:01:58;2.40;;;2.20;;
16832;SDS011;8533;48.426;10.868;2022-09-09T03:04:26;3.63;;;2.70;;
16832;SDS011;8533;48.426;10.868;2022-09-09T03:06:54;3.83;;;2.50;;
16832;SDS011;8533;48.426;10.868;2022-09-09T03:09:22;5.60;;;2.80;;
16832;SDS011;8533;48.426;10.868;2022-09-09T03:11:50;3.77;;;2.33;;
16832;SDS011;8533;48.426;10.868;2022-09-09T03:14:20;3.37;;;2.37;;
16832;SDS011;8533;48.426;10.868;2022-09-09T03:16:49;6.43;;;3.00;;
16832;SDS011;8533;48.426;10.868;2022-09-09T03:19:17;5.90;;;2.90;;
16832;SDS011;8533;48.426;10.868;2022-09-09T03:21:46;4.50;;;2.57;;
16832;SDS011;8533;48.426;10.868;2022-09-09T03:24:15;3.50;;;3.20;;
16832;SDS011;8533;48.426;10.868;2022-09-09T03:26:42;4.67;;;2.87;;
16832;SDS011;8533;48.426;10.868;2022-09-09T03:29:12;6.57;;;3.10;;
16832;SDS011;8533;48.426;10.868;2022-09-09T03:31:40;3.40;;;2.57;;
16832;SDS011;8533;48.426;10.868;2022-09-09T03:34:08;4.27;;;2.50;;
16832;SDS011;8533;48.426;10.868;2022-09-09T03:36:35;5.13;;;2.80;;
16832;SDS011;8533;48.426;10.868;2022-09-09T03:39:03;2.80;;;2.43;;
16832;SDS011;8533;48.426;10.868;2022-09-09T03:41:31;4.87;;;2.57;;
16832;SDS011;8533;48.426;10.868;2022-09-09T03:43:59;6.07;;;2.73;;
16832;SDS011;8533;48.426;10.868;2022-09-09T03:46:27;3.60;;;2.83;;
16832;SDS011;8533;48.426;10.868;2022-09-09T03:48:54;5.37;;;3.00;;
16832;SDS011;8533;48.426;10.868;2022-09-09T03:51:22;3.37;;;2.60;;
16832;SDS011;8533;48.426;10.868;2022-09-09T03:53:50;4.07;;;2.60;;
16832;SDS011;8533;48.426;10.868;2022-09-09T03:56:18;3.27;;;2.30;;
16832;SDS011;8533;48.426;10.868;2022-09-09T03:58:47;4.53;;;3.10;;
16832;SDS011;8533;48.426;10.868;2022-09-09T04:01:14;3.60;;;2.50;;
16832;SDS011;8533;48.426;10.868;2022-09-09T04:03:43;6.53;;;2.53;;
16832;SDS011;8533;48.426;10.868;2022-09-09T04:06:11;3.07;;;2.30;;
16832;SDS011;8533;48.426;10.868;2022-09-09T04:08:40;3.03;;;2.00;;
16832;SDS011;8533;48.426;10.868;2022-09-09T04:11:07;4.67;;;2.40;;
16832;SDS011;8533;48.426;10.868;2022-09-09T04:13:36;2.53;;;2.27;;
16832;SDS011;8533;48.426;10.868;2022-09-09T04:16:04;2.93;;;2.37;;
16832;SDS011;8533;48.426;10.868;2022-09-09T04:18:33;4.13;;;2.30;;
16832;SDS011;8533;48.426;10.868;2022-09-09T04:21:00;4.17;;;2.60;;
16832;SDS011;8533;48.426;10.868;2022-09-09T04:23:29;2.63;;;2.33;;
16832;SDS011;8533;48.426;10.868;2022-09-09T04:25:57;2.37;;;2.17;;
16832;SDS011;8533;48.426;10.868;2022-09-09T04:28:26;6.40;;;2.47;;
16832;SDS011;8533;48.426;10.868;2022-09-09T04:30:55;2.57;;;2.37;;
16832;SDS011;8533;48.426;10.868;2022-09-09T04:33:24;3.10;;;2.20;;
16832;SDS011;8533;48.426;10.868;2022-09-09T04:35:52;3.73;;;2.07;;
16832;SDS011;8533;48.426;10.868;2022-09-09T04:38:20;3.93;;;2.10;;
16832;SDS011;8533;48.426;10.868;2022-09-09T04:40:52;3.73;;;2.30;;
16832;SDS011;8533;48.426;10.868;2022-09-09T04:43:20;3.57;;;2.40;;
16832;SDS011;8533;48.426;10.868;2022-09-09T04:45:48;3.00;;;2.43;;
16832;SDS011;8533;48.426;10.868;2022-09-09T04:48:17;3.30;;;2.90;;
16832;SDS011;8533;48.426;10.868;2022-09-09T04:50:53;4.93;;;2.73;;
16832;SDS011;8533;48.426;10.868;2022-09-09T04:55:48;4.63;;;3.13;;
16832;SDS011;8533;48.426;10.868;2022-09-09T04:58:16;4.10;;;2.80;;
16832;SDS011;8533;48.426;10.868;2022-09-09T05:00:44;3.53;;;2.80;;
16832;SDS011;8533;48.426;10.868;2022-09-09T05:03:11;4.13;;;3.07;;
16832;SDS011;8533;48.426;10.868;2022-09-09T05:05:39;3.50;;;2.53;;
16832;SDS011;8533;48.426;10.868;2022-09-09T05:08:07;4.53;;;3.10;;
16832;SDS011;8533;48.426;10.868;2022-09-09T05:10:36;8.10;;;3.50;;
16832;SDS011;8533;48.426;10.868;2022-09-09T05:13:07;5.33;;;2.73;;
16832;SDS011;8533;48.426;10.868;2022-09-09T05:15:34;3.17;;;2.57;;
16832;SDS011;8533;48.426;10.868;2022-09-09T05:18:02;4.77;;;2.97;;
16832;SDS011;8533;48.426;10.868;2022-09-09T05:20:29;2.90;;;2.33;;
16832;SDS011;8533;48.426;10.868;2022-09-09T05:22:57;3.07;;;2.20;;
16832;SDS011;8533;48.426;10.868;2022-09-09T05:25:24;3.53;;;2.30;;
16832;SDS011;8533;48.426;10.868;2022-09-09T05:27:52;3.20;;;2.37;;
16832;SDS011;8533;48.426;10.868;2022-09-09T05:30:21;5.17;;;2.47;;
16832;SDS011;8533;48.426;10.868;2022-09-09T05:32:50;4.03;;;1.90;;
16832;SDS011;8533;48.426;10.868;2022-09-09T05:35:17;3.43;;;1.53;;
16832;SDS011;8533;48.426;10.868;2022-09-09T05:37:46;2.90;;;1.97;;
16832;SDS011;8533;48.426;10.868;2022-09-09T05:40:13;1.67;;;1.57;;
16832;SDS011;8533;48.426;10.868;2022-09-09T05:42:41;2.97;;;1.63;;
16832;SDS011;8533;48.426;10.868;2022-09-09T05:45:08;6.80;;;1.90;;
16832;SDS011;8533;48.426;10.868;2022-09-09T05:47:37;7.63;;;3.37;;
16832;SDS011;8533;48.426;10.868;2022-09-09T05:50:04;4.00;;;2.53;;
16832;SDS011;8533;48.426;10.868;2022-09-09T05:52:32;11.67;;;2.63;;
16832;SDS011;8533;48.426;10.868;2022-09-09T05:55:00;5.80;;;2.60;;
16832;SDS011;8533;48.426;10.868;2022-09-09T05:57:30;5.67;;;2.40;;
16832;SDS011;8533;48.426;10.868;2022-09-09T05:59:58;3.07;;;2.20;;
16832;SDS011;8533;48.426;10.868;2022-09-09T06:02:25;4.00;;;2.40;;
16832;SDS011;8533;48.426;10.868;2022-09-09T06:04:53;2.57;;;2.20;;
16832;SDS011;8533;48.426;10.868;2022-09-09T06:07:21;4.17;;;2.40;;
16832;SDS011;8533;48.426;10.868;2022-09-09T06:09:48;2.53;;;1.80;;
16832;SDS011;8533;48.426;10.868;2022-09-09T06:12:17;4.03;;;2.10;;
16832;SDS011;8533;48.426;10.868;2022-09-09T06:14:44;1.93;;;1.67;;
16832;SDS011;8533;48.426;10.868;2022-09-09T06:17:11;2.67;;;1.93;;
16832;SDS011;8533;48.426;10.868;2022-09-09T06:19:39;4.33;;;1.93;;
16832;SDS011;8533;48.426;10.868;2022-09-09T06:22:06;1.60;;;1.50;;
16832;SDS011;8533;48.426;10.868;2022-09-09T06:24:35;1.90;;;1.70;;
16832;SDS011;8533;48.426;10.868;2022-09-09T06:27:03;2.03;;;1.60;;
16832;SDS011;8533;48.426;10.868;2022-09-09T06:29:30;4.13;;;1.50;;
16832;SDS011;8533;48.426;10.868;2022-09-09T06:31:58;3.63;;;1.80;;
16832;SDS011;8533;48.426;10.868;2022-09-09T06:34:26;1.97;;;1.77;;
16832;SDS011;8533;48.426;10.868;2022-09-09T06:36:53;1.93;;;1.83;;
16832;SDS011;8533;48.426;10.868;2022-09-09T06:39:23;3.63;;;1.70;;
16832;SDS011;8533;48.426;10.868;2022-09-09T06:41:51;1.80;;;1.67;;
16832;SDS011;8533;48.426;10.868;2022-09-09T06:44:18;3.90;;;2.10;;
16832;SDS011;8533;48.426;10.868;2022-09-09T06:46:47;1.90;;;1.80;;
16832;SDS011;8533;48.426;10.868;2022-09-09T06:49:15;3.67;;;1.80;;
16832;SDS011;8533;48.426;10.868;2022-09-09T06:51:42;1.70;;;1.60;;
16832;SDS011;8533;48.426;10.868;2022-09-09T06:54:11;3.00;;;1.80;;
16832;SDS011;8533;48.426;10.868;2022-09-09T06:56:39;1.97;;;1.80;;
16832;SDS011;8533;48.426;10.868;2022-09-09T06:59:08;4.10;;;1.90;;
16832;SDS011;8533;48.426;10.868;2022-09-09T07:01:38;3.03;;;1.80;;
16832;SDS011;8533;48.426;10.868;2022-09-09T07:04:07;1.93;;;1.80;;
16832;SDS011;8533;48.426;10.868;2022-09-09T07:06:37;2.27;;;1.80;;
16832;SDS011;8533;48.426;10.868;2022-09-09T07:09:07;3.40;;;2.10;;
16832;SDS011;8533;48.426;10.868;2022-09-09T07:11:39;3.53;;;2.17;;
16832;SDS011;8533;48.426;10.868;2022-09-09T07:14:09;3.33;;;2.10;;
16832;SDS011;8533;48.426;10.868;2022-09-09T07:16:42;2.90;;;2.20;;
16832;SDS011;8533;48.426;10.868;2022-09-09T07:19:11;3.50;;;2.80;;
16832;SDS011;8533;48.426;10.868;2022-09-09T07:21:40;4.10;;;3.70;;
16832;SDS011;8533;48.426;10.868;2022-09-09T07:24:07;3.90;;;2.70;;
16832;SDS011;8533;48.426;10.868;2022-09-09T07:26:36;3.67;;;2.87;;
16832;SDS011;8533;48.426;10.868;2022-09-09T07:29:05;2.93;;;2.20;;
16832;SDS011;8533;48.426;10.868;2022-09-09T07:31:35;3.43;;;2.20;;
16832;SDS011;8533;48.426;10.868;2022-09-09T07:34:05;2.10;;;1.90;;
16832;SDS011;8533;48.426;10.868;2022-09-09T07:36:33;2.87;;;2.00;;
16832;SDS011;8533;48.426;10.868;2022-09-09T07:39:04;4.33;;;1.90;;
16832;SDS011;8533;48.426;10.868;2022-09-09T07:41:44;2.30;;;1.90;;
16832;SDS011;8533;48.426;10.868;2022-09-09T07:46:41;3.50;;;2.20;;
16832;SDS011;8533;48.426;10.868;2022-09-09T07:49:10;3.57;;;1.93;;
16832;SDS011;8533;48.426;10.868;2022-09-09T07:51:39;2.33;;;1.70;;
16832;SDS011;8533;48.426;10.868;2022-09-09T07:54:10;1.83;;;1.73;;
16832;SDS011;8533;48.426;10.868;2022-09-09T07:56:39;1.97;;;1.80;;
16832;SDS011;8533;48.426;10.868;2022-09-09T07:59:08;4.17;;;2.07;;
16832;SDS011;8533;48.426;10.868;2022-09-09T08:01:38;4.00;;;1.80;;
16832;SDS011;8533;48.426;10.868;2022-09-09T08:04:14;2.80;;;2.00;;
16832;SDS011;8533;48.426;10.868;2022-09-09T08:06:43;3.73;;;1.80;;
16832;SDS011;8533;48.426;10.868;2022-09-09T08:11:46;2.43;;;1.83;;
16832;SDS011;8533;48.426;10.868;2022-09-09T08:14:14;3.33;;;2.10;;
16832;SDS011;8533;48.426;10.868;2022-09-09T08:16:43;2.37;;;1.80;;
16832;SDS011;8533;48.426;10.868;2022-09-09T08:19:12;2.10;;;1.80;;
16832;SDS011;8533;48.426;10.868;2022-09-09T08:21:42;4.60;;;2.57;;
16832;SDS011;8533;48.426;10.868;2022-09-09T08:24:10;3.70;;;2.03;;
16832;SDS011;8533;48.426;10.868;2022-09-09T08:26:41;2.20;;;1.63;;
16832;SDS011;8533;48.426;10.868;2022-09-09T08:29:11;2.10;;;1.80;;
16832;SDS011;8533;48.426;10.868;2022-09-09T08:31:41;1.67;;;1.57;;
16832;SDS011;8533;48.426;10.868;2022-09-09T08:34:10;1.60;;;1.50;;
16832;SDS011;8533;48.426;10.868;2022-09-09T08:36:39;1.40;;;1.30;;
16832;SDS011;8533;48.426;10.868;2022-09-09T08:39:09;3.30;;;1.23;;
16832;SDS011;8533;48.426;10.868;2022-09-09T08:41:49;1.50;;;1.30;;
16832;SDS011;8533;48.426;10.868;2022-09-09T08:52:29;1.37;;;1.23;;
16832;SDS011;8533;48.426;10.868;2022-09-09T08:55:02;1.20;;;1.10;;
16832;SDS011;8533;48.426;10.868;2022-09-09T08:57:45;1.33;;;1.17;;
16832;SDS011;8533;48.426;10.868;2022-09-09T09:00:14;0.90;;;0.90;;
16832;SDS011;8533;48.426;10.868;2022-09-09T09:08:06;0.90;;;0.90;;
16832;SDS011;8533;48.426;10.868;2022-09-09T09:13:15;1.90;;;1.43;;
16832;SDS011;8533;48.426;10.868;2022-09-09T09:18:15;2.43;;;1.03;;
16832;SDS011;8533;48.426;10.868;2022-09-09T09:20:50;3.73;;;1.40;;
16832;SDS011;8533;48.426;10.868;2022-09-09T09:25:49;1.63;;;1.30;;
16832;SDS011;8533;48.426;10.868;2022-09-09T09:28:29;1.40;;;1.30;;
16832;SDS011;8533;48.426;10.868;2022-09-09T09:30:54;2.20;;;1.40;;
16832;SDS011;8533;48.426;10.868;2022-09-09T09:33:34;1.83;;;1.40;;
16832;SDS011;8533;48.426;10.868;2022-09-09T09:38:36;1.50;;;1.40;;
16832;SDS011;8533;48.426;10.868;2022-09-09T09:41:03;2.47;;;1.60;;
16832;SDS011;8533;48.426;10.868;2022-09-09T09:43:32;1.40;;;1.30;;
16832;SDS011;8533;48.426;10.868;2022-09-09T09:46:17;1.50;;;1.30;;
16832;SDS011;8533;48.426;10.868;2022-09-09T09:48:32;4.80;;;1.67;;
16832;SDS011;8533;48.426;10.868;2022-09-09T09:51:01;1.50;;;1.40;;
16832;SDS011;8533;48.426;10.868;2022-09-09T09:56:10;2.93;;;1.50;;
16832;SDS011;8533;48.426;10.868;2022-09-09T10:03:55;1.70;;;1.60;;
16832;SDS011;8533;48.426;10.868;2022-09-09T10:06:32;3.33;;;1.43;;
16832;SDS011;8533;48.426;10.868;2022-09-09T10:09:01;4.10;;;1.90;;
16832;SDS011;8533;48.426;10.868;2022-09-09T10:11:41;2.80;;;1.70;;
16832;SDS011;8533;48.426;10.868;2022-09-09T10:16:40;1.50;;;1.40;;
16832;SDS011;8533;48.426;10.868;2022-09-09T10:19:32;2.27;;;1.50;;
16832;SDS011;8533;48.426;10.868;2022-09-09T10:30:06;1.83;;;1.37;;
16832;SDS011;8533;48.426;10.868;2022-09-09T10:35:47;1.85;;;1.20;;
16832;SDS011;8533;48.426;10.868;2022-09-09T10:38:16;2.30;;;1.10;;
16832;SDS011;8533;48.426;10.868;2022-09-09T11:02:32;1.27;;;0.93;;
16832;SDS011;8533;48.426;10.868;2022-09-09T11:05:05;1.40;;;1.30;;
16832;SDS011;8533;48.426;10.868;2022-09-09T11:07:47;0.90;;;0.90;;
16832;SDS011;8533;48.426;10.868;2022-09-09T11:15:23;2.33;;;1.40;;
16832;SDS011;8533;48.426;10.868;2022-09-09T11:17:55;3.33;;;1.20;;
16832;SDS011;8533;48.426;10.868;2022-09-09T11:20:25;2.03;;;1.40;;
16832;SDS011;8533;48.426;10.868;2022-09-09T11:28:10;2.60;;;1.20;;
16832;SDS011;8533;48.426;10.868;2022-09-09T11:33:16;3.90;;;1.40;;
16832;SDS011;8533;48.426;10.868;2022-09-09T11:38:47;2.57;;;1.30;;
16832;SDS011;8533;48.426;10.868;2022-09-09T11:41:17;1.90;;;1.70;;
16832;SDS011;8533;48.426;10.868;2022-09-09T11:43:48;5.10;;;1.50;;
16832;SDS011;8533;48.426;10.868;2022-09-09T11:46:22;1.40;;;1.30;;
16832;SDS011;8533;48.426;10.868;2022-09-09T11:48:58;1.63;;;1.17;;
16832;SDS011;8533;48.426;10.868;2022-09-09T11:54:25;1.80;;;1.27;;
16832;SDS011;8533;48.426;10.868;2022-09-09T11:56:49;1.17;;;1.00;;
16832;SDS011;8533;48.426;10.868;2022-09-09T11:59:22;3.07;;;1.30;;
16832;SDS011;8533;48.426;10.868;2022-09-09T12:04:37;1.10;;;1.00;;
16832;SDS011;8533;48.426;10.868;2022-09-09T12:12:23;1.80;;;1.20;;
16832;SDS011;8533;48.426;10.868;2022-09-09T12:15:00;2.87;;;1.20;;
16832;SDS011;8533;48.426;10.868;2022-09-09T12:20:00;3.07;;;1.10;;
16832;SDS011;8533;48.426;10.868;2022-09-09T12:22:52;0.90;;;0.90;;
16832;SDS011;8533;48.426;10.868;2022-09-09T12:36:02;1.53;;;1.20;;
16832;SDS011;8533;48.426;10.868;2022-09-09T12:38:36;1.33;;;1.13;;
16832;SDS011;8533;48.426;10.868;2022-09-09T12:41:03;3.77;;;1.00;;
16832;SDS011;8533;48.426;10.868;2022-09-09T12:43:31;1.23;;;1.13;;
16832;SDS011;8533;48.426;10.868;2022-09-09T12:46:03;1.20;;;1.10;;
16832;SDS011;8533;48.426;10.868;2022-09-09T12:48:36;1.20;;;1.10;;
16832;SDS011;8533;48.426;10.868;2022-09-09T12:56:22;3.63;;;1.37;;
16832;SDS011;8533;48.426;10.868;2022-09-09T12:58:53;2.37;;;1.23;;
16832;SDS011;8533;48.426;10.868;2022-09-09T13:01:26;2.73;;;1.13;;
16832;SDS011;8533;48.426;10.868;2022-09-09T13:03:55;2.60;;;1.20;;
16832;SDS011;8533;48.426;10.868;2022-09-09T13:06:24;1.37;;;1.27;;
16832;SDS011;8533;48.426;10.868;2022-09-09T13:08:54;1.27;;;1.17;;
16832;SDS011;8533;48.426;10.868;2022-09-09T13:11:30;4.60;;;1.27;;
16832;SDS011;8533;48.426;10.868;2022-09-09T13:14:00;3.13;;;1.27;;
16832;SDS011;8533;48.426;10.868;2022-09-09T13:16:29;2.87;;;1.13;;
16832;SDS011;8533;48.426;10.868;2022-09-09T13:19:07;2.83;;;1.90;;
16832;SDS011;8533;48.426;10.868;2022-09-09T13:24:26;1.60;;;1.20;;
16832;SDS011;8533;48.426;10.868;2022-09-09T13:27:20;1.60;;;1.20;;
16832;SDS011;8533;48.426;10.868;2022-09-09T13:29:31;1.60;;;0.87;;
16832;SDS011;8533;48.426;10.868;2022-09-09T13:32:12;4.80;;;1.07;;
16832;SDS011;8533;48.426;10.868;2022-09-09T13:34:51;2.00;;;1.20;;
16832;SDS011;8533;48.426;10.868;2022-09-09T13:42:36;1.33;;;1.23;;
16832;SDS011;8533;48.426;10.868;2022-09-09T13:45:05;5.13;;;1.10;;
16832;SDS011;8533;48.426;10.868;2022-09-09T13:47:35;1.80;;;1.43;;
16832;SDS011;8533;48.426;10.868;2022-09-09T13:50:37;4.20;;;1.33;;
16832;SDS011;8533;48.426;10.868;2022-09-09T13:52:52;2.50;;;1.10;;
16832;SDS011;8533;48.426;10.868;2022-09-09T13:55:24;1.87;;;0.90;;
16832;SDS011;8533;48.426;10.868;2022-09-09T13:57:57;4.13;;;1.27;;
16832;SDS011;8533;48.426;10.868;2022-09-09T14:00:28;3.13;;;1.23;;
16832;SDS011;8533;48.426;10.868;2022-09-09T14:02:57;2.53;;;1.20;;
16832;SDS011;8533;48.426;10.868;2022-09-09T14:05:26;2.87;;;1.27;;
16832;SDS011;8533;48.426;10.868;2022-09-09T14:07:54;2.53;;;1.00;;
16832;SDS011;8533;48.426;10.868;2022-09-09T14:10:21;1.23;;;1.13;;
16832;SDS011;8533;48.426;10.868;2022-09-09T14:12:49;1.80;;;1.20;;
16832;SDS011;8533;48.426;10.868;2022-09-09T14:15:18;1.10;;;1.00;;
16832;SDS011;8533;48.426;10.868;2022-09-09T14:17:46;2.50;;;0.90;;
16832;SDS011;8533;48.426;10.868;2022-09-09T14:20:14;1.17;;;1.00;;
16832;SDS011;8533;48.426;10.868;2022-09-09T14:22:43;2.10;;;1.10;;
16832;SDS011;8533;48.426;10.868;2022-09-09T14:25:10;3.30;;;1.27;;
16832;SDS011;8533;48.426;10.868;2022-09-09T14:27:41;2.37;;;1.23;;
16832;SDS011;8533;48.426;10.868;2022-09-09T14:30:09;2.43;;;0.87;;
16832;SDS011;8533;48.426;10.868;2022-09-09T14:32:38;0.83;;;0.83;;
16832;SDS011;8533;48.426;10.868;2022-09-09T14:35:06;1.53;;;1.40;;
16832;SDS011;8533;48.426;10.868;2022-09-09T14:37:35;2.87;;;1.07;;
16832;SDS011;8533;48.426;10.868;2022-09-09T14:40:02;1.17;;;1.07;;
16832;SDS011;8533;48.426;10.868;2022-09-09T14:42:30;1.93;;;1.53;;
16832;SDS011;8533;48.426;10.868;2022-09-09T14:44:57;1.30;;;1.17;;
16832;SDS011;8533;48.426;10.868;2022-09-09T14:47:26;2.77;;;1.00;;
16832;SDS011;8533;48.426;10.868;2022-09-09T14:49:53;0.90;;;0.90;;
16832;SDS011;8533;48.426;10.868;2022-09-09T14:52:21;1.00;;;1.00;;
16832;SDS011;8533;48.426;10.868;2022-09-09T14:54:49;1.90;;;1.33;;
16832;SDS011;8533;48.426;10.868;2022-09-09T14:57:17;0.90;;;0.90;;
16832;SDS011;8533;48.426;10.868;2022-09-09T14:59:45;3.53;;;1.00;;
16832;SDS011;8533;48.426;10.868;2022-09-09T15:02:12;1.23;;;0.90;;
16832;SDS011;8533;48.426;10.868;2022-09-09T15:04:39;0.80;;;0.70;;
16832;SDS011;8533;48.426;10.868;2022-09-09T15:07:08;0.80;;;0.80;;
16832;SDS011;8533;48.426;10.868;2022-09-09T15:09:36;0.70;;;0.70;;
16832;SDS011;8533;48.426;10.868;2022-09-09T15:12:03;1.40;;;0.90;;
16832;SDS011;8533;48.426;10.868;2022-09-09T15:14:31;0.63;;;0.63;;
16832;SDS011;8533;48.426;10.868;2022-09-09T15:16:58;0.83;;;0.60;;
16832;SDS011;8533;48.426;10.868;2022-09-09T15:19:27;0.80;;;0.80;;
16832;SDS011;8533;48.426;10.868;2022-09-09T15:21:55;0.80;;;0.80;;
16832;SDS011;8533;48.426;10.868;2022-09-09T15:24:22;0.80;;;0.80;;
16832;SDS011;8533;48.426;10.868;2022-09-09T15:26:51;0.87;;;0.80;;
16832;SDS011;8533;48.426;10.868;2022-09-09T15:29:20;1.10;;;0.87;;
16832;SDS011;8533;48.426;10.868;2022-09-09T15:31:48;1.00;;;0.80;;
16832;SDS011;8533;48.426;10.868;2022-09-09T15:34:15;0.90;;;0.90;;
16832;SDS011;8533;48.426;10.868;2022-09-09T15:36:43;1.07;;;1.07;;
16832;SDS011;8533;48.426;10.868;2022-09-09T15:39:15;1.30;;;0.83;;
16832;SDS011;8533;48.426;10.868;2022-09-09T15:41:47;2.30;;;1.83;;
16832;SDS011;8533;48.426;10.868;2022-09-09T15:44:15;2.27;;;1.10;;
16832;SDS011;8533;48.426;10.868;2022-09-09T15:46:45;1.13;;;1.07;;
16832;SDS011;8533;48.426;10.868;2022-09-09T15:49:16;1.40;;;0.90;;
16832;SDS011;8533;48.426;10.868;2022-09-09T15:51:55;1.30;;;1.20;;
16832;SDS011;8533;48.426;10.868;2022-09-09T15:54:19;2.23;;;1.40;;
16832;SDS011;8533;48.426;10.868;2022-09-09T15:56:56;1.37;;;1.20;;
16832;SDS011;8533;48.426;10.868;2022-09-09T16:01:53;2.30;;;1.13;;
16832;SDS011;8533;48.426;10.868;2022-09-09T16:04:22;1.00;;;1.00;;
16832;SDS011;8533;48.426;10.868;2022-09-09T16:06:52;2.47;;;1.27;;
16832;SDS011;8533;48.426;10.868;2022-09-09T16:09:23;1.30;;;1.20;;
16832;SDS011;8533;48.426;10.868;2022-09-09T16:11:50;1.33;;;1.20;;
16832;SDS011;8533;48.426;10.868;2022-09-09T16:14:18;1.30;;;1.20;;
16832;SDS011;8533;48.426;10.868;2022-09-09T16:16:48;1.43;;;1.10;;
16832;SDS011;8533;48.426;10.868;2022-09-09T16:19:15;1.70;;;1.10;;
16832;SDS011;8533;48.426;10.868;2022-09-09T16:21:44;1.03;;;1.03;;
16832;SDS011;8533;48.426;10.868;2022-09-09T16:24:15;3.03;;;1.20;;
16832;SDS011;8533;48.426;10.868;2022-09-09T16:26:45;1.00;;;1.00;;
16832;SDS011;8533;48.426;10.868;2022-09-09T16:29:15;1.10;;;1.00;;
16832;SDS011;8533;48.426;10.868;2022-09-09T16:31:44;1.17;;;1.00;;
16832;SDS011;8533;48.426;10.868;2022-09-09T16:34:13;1.10;;;1.00;;
16832;SDS011;8533;48.426;10.868;2022-09-09T16:36:43;1.40;;;1.30;;
16832;SDS011;8533;48.426;10.868;2022-09-09T16:39:13;1.20;;;1.10;;
16832;SDS011;8533;48.426;10.868;2022-09-09T16:41:42;1.10;;;1.03;;
16832;SDS011;8533;48.426;10.868;2022-09-09T16:44:11;0.97;;;0.97;;
16832;SDS011;8533;48.426;10.868;2022-09-09T16:46:42;1.23;;;1.13;;
16832;SDS011;8533;48.426;10.868;2022-09-09T16:49:11;1.30;;;1.20;;
16832;SDS011;8533;48.426;10.868;2022-09-09T16:51:43;1.00;;;1.00;;
16832;SDS011;8533;48.426;10.868;2022-09-09T16:56:44;0.97;;;0.97;;
16832;SDS011;8533;48.426;10.868;2022-09-09T16:59:19;1.13;;;1.03;;
16832;SDS011;8533;48.426;10.868;2022-09-09T17:01:44;1.57;;;1.00;;
16832;SDS011;8533;48.426;10.868;2022-09-09T17:04:14;1.70;;;1.10;;
16832;SDS011;8533;48.426;10.868;2022-09-09T17:06:46;1.03;;;1.03;;
16832;SDS011;8533;48.426;10.868;2022-09-09T17:09:19;1.57;;;1.40;;
16832;SDS011;8533;48.426;10.868;2022-09-09T17:11:48;2.13;;;1.40;;
16832;SDS011;8533;48.426;10.868;2022-09-09T17:14:18;2.73;;;1.10;;
16832;SDS011;8533;48.426;10.868;2022-09-09T17:16:47;4.30;;;1.20;;
16832;SDS011;8533;48.426;10.868;2022-09-09T17:19:14;1.30;;;1.20;;
16832;SDS011;8533;48.426;10.868;2022-09-09T17:21:42;1.27;;;1.17;;
16832;SDS011;8533;48.426;10.868;2022-09-09T17:24:12;1.30;;;1.20;;
16832;SDS011;8533;48.426;10.868;2022-09-09T17:26:40;2.20;;;1.40;;
16832;SDS011;8533;48.426;10.868;2022-09-09T17:29:09;3.67;;;1.37;;
16832;SDS011;8533;48.426;10.868;2022-09-09T17:31:38;6.40;;;2.33;;
16832;SDS011;8533;48.426;10.868;2022-09-09T17:34:07;3.00;;;2.00;;
16832;SDS011;8533;48.426;10.868;2022-09-09T17:36:35;8.80;;;2.43;;
16832;SDS011;8533;48.426;10.868;2022-09-09T17:39:04;7.00;;;2.50;;
16832;SDS011;8533;48.426;10.868;2022-09-09T17:41:36;2.63;;;1.80;;
16832;SDS011;8533;48.426;10.868;2022-09-09T17:44:05;4.10;;;2.17;;
16832;SDS011;8533;48.426;10.868;2022-09-09T17:46:40;3.47;;;2.10;;
16832;SDS011;8533;48.426;10.868;2022-09-09T17:49:07;4.90;;;2.10;;
16832;SDS011;8533;48.426;10.868;2022-09-09T17:51:37;3.60;;;1.77;;
16832;SDS011;8533;48.426;10.868;2022-09-09T17:54:11;2.70;;;1.83;;
16832;SDS011;8533;48.426;10.868;2022-09-09T17:56:40;3.10;;;1.80;;
16832;SDS011;8533;48.426;10.868;2022-09-09T17:59:09;5.03;;;2.50;;
16832;SDS011;8533;48.426;10.868;2022-09-09T18:01:42;2.90;;;2.30;;
16832;SDS011;8533;48.426;10.868;2022-09-09T18:04:12;5.73;;;2.70;;
16832;SDS011;8533;48.426;10.868;2022-09-09T18:06:41;4.23;;;2.67;;
16832;SDS011;8533;48.426;10.868;2022-09-09T18:09:12;4.80;;;2.30;;